createdAt,value
2022-10-23T00:02:26.659Z,80.91
2022-10-23T00:04:57.454Z,81.00
2022-10-23T00:07:28.224Z,80.97
2022-10-23T00:09:58.897Z,81.02
2022-10-23T00:12:29.684Z,81.00
2022-10-23T00:15:00.365Z,81.17
2022-10-23T00:17:32.748Z,81.19
2022-10-23T00:20:04.268Z,81.16
2022-10-23T00:22:35.343Z,81.24
2022-10-23T00:25:07.855Z,81.30
2022-10-23T00:27:38.678Z,81.25
2022-10-23T00:30:11.900Z,81.23
2022-10-23T00:32:42.491Z,81.16
2022-10-23T00:35:14.397Z,81.06
2022-10-23T00:37:45.258Z,80.93
2022-10-23T00:40:16.540Z,80.86
2022-10-23T00:42:47.812Z,80.99
2022-10-23T00:45:26.473Z,80.79
2022-10-23T00:47:57.808Z,80.78
2022-10-23T00:50:32.180Z,80.67
2022-10-23T00:53:05.490Z,80.60
2022-10-23T00:55:38.336Z,80.69
2022-10-23T00:58:09.998Z,80.63
2022-10-23T01:00:48.663Z,80.59
2022-10-23T01:03:18.895Z,80.58
2022-10-23T01:05:55.204Z,80.57
2022-10-23T01:08:34.291Z,80.53
2022-10-23T01:11:11.702Z,80.46
2022-10-23T01:13:50.838Z,80.58
2022-10-23T01:16:27.995Z,80.52
2022-10-23T01:19:06.399Z,80.50
2022-10-23T01:21:48.227Z,80.30
2022-10-23T01:24:37.472Z,80.50
2022-10-23T01:27:29.611Z,80.50
2022-10-23T01:30:07.337Z,80.51
2022-10-23T01:32:49.769Z,80.52
2022-10-23T01:35:25.722Z,80.50
2022-10-23T01:38:13.151Z,80.50
2022-10-23T01:40:49.991Z,80.60
2022-10-23T01:43:24.940Z,80.64
2022-10-23T01:46:02.103Z,80.65
2022-10-23T01:48:35.771Z,80.67
2022-10-23T01:51:10.104Z,80.60
2022-10-23T01:53:43.521Z,80.63
2022-10-23T01:56:19.617Z,80.74
2022-10-23T01:58:53.765Z,80.60
2022-10-23T02:01:29.073Z,80.53
2022-10-23T02:04:01.297Z,80.56
2022-10-23T02:06:32.838Z,80.42
2022-10-23T02:09:04.365Z,80.59
2022-10-23T02:11:40.703Z,80.59
2022-10-23T02:14:19.875Z,80.57
2022-10-23T02:16:54.701Z,80.57
2022-10-23T02:19:31.056Z,80.69
2022-10-23T02:22:13.869Z,80.69
2022-10-23T02:24:50.314Z,80.71
2022-10-23T02:27:26.071Z,80.56
2022-10-23T02:30:07.160Z,80.72
2022-10-23T02:32:42.602Z,80.59
2022-10-23T02:35:15.983Z,80.61
2022-10-23T02:37:53.071Z,80.64
2022-10-23T02:40:33.209Z,80.59
2022-10-23T02:43:09.592Z,80.65
2022-10-23T02:45:47.959Z,80.59
2022-10-23T02:48:23.844Z,80.56
2022-10-23T02:51:03.728Z,80.51
2022-10-23T02:53:45.143Z,80.57
2022-10-23T02:56:29.481Z,80.49
2022-10-23T02:59:06.333Z,80.46
2022-10-23T03:01:42.193Z,80.57
2022-10-23T03:04:14.979Z,80.48
2022-10-23T03:06:44.149Z,80.49
2022-10-23T03:09:19.031Z,80.43
2022-10-23T03:11:49.842Z,80.49
2022-10-23T03:14:20.864Z,80.50
2022-10-23T03:16:51.532Z,80.45
2022-10-23T03:19:22.318Z,80.57
2022-10-23T03:21:53.053Z,80.39
2022-10-23T03:24:24.724Z,80.56
2022-10-23T03:26:56.160Z,80.49
2022-10-23T03:29:33.344Z,80.46
2022-10-23T03:32:04.030Z,80.47
2022-10-23T03:34:34.731Z,80.46
2022-10-23T03:37:07.631Z,80.45
2022-10-23T03:39:38.363Z,80.49
2022-10-23T03:42:09.097Z,80.53
2022-10-23T03:44:39.773Z,80.54
2022-10-23T03:47:12.029Z,80.51
2022-10-23T03:49:42.882Z,80.42
2022-10-23T03:52:13.909Z,80.52
2022-10-23T03:54:44.764Z,80.60
2022-10-23T03:57:15.696Z,80.57
2022-10-23T03:59:53.529Z,80.22
2022-10-23T04:02:24.332Z,80.15
2022-10-23T04:04:55.979Z,80.54
2022-10-23T04:07:26.830Z,80.52
2022-10-23T04:09:57.969Z,80.30
2022-10-23T04:12:28.576Z,80.28
2022-10-23T04:14:59.199Z,80.17
2022-10-23T04:17:30.397Z,80.29
2022-10-23T04:20:01.162Z,80.57
2022-10-23T04:22:31.924Z,80.69
2022-10-23T04:25:02.575Z,80.71
2022-10-23T04:27:35.067Z,80.88
2022-10-23T04:30:06.845Z,80.85
2022-10-23T04:32:37.728Z,80.76
2022-10-23T04:35:10.326Z,80.72
2022-10-23T04:37:41.203Z,80.99
2022-10-23T04:40:13.325Z,80.85
2022-10-23T04:42:44.565Z,80.49
2022-10-23T04:45:15.761Z,80.18
2022-10-23T04:47:46.464Z,79.93
2022-10-23T04:50:17.957Z,80.18
2022-10-23T04:53:07.459Z,80.50
2022-10-23T04:55:59.612Z,80.56
2022-10-23T04:58:53.596Z,80.51
2022-10-23T05:01:25.948Z,80.72
2022-10-23T05:03:57.409Z,80.70
2022-10-23T05:06:28.104Z,80.94
2022-10-23T05:09:15.204Z,81.06
2022-10-23T05:12:03.053Z,80.95
2022-10-23T05:14:34.125Z,81.05
2022-10-23T05:17:08.967Z,80.90
2022-10-23T05:19:44.862Z,80.95
2022-10-23T05:22:16.473Z,80.99
2022-10-23T05:24:52.937Z,81.04
2022-10-23T05:27:27.307Z,80.96
2022-10-23T05:30:01.357Z,81.12
2022-10-23T05:32:35.892Z,81.14
2022-10-23T05:35:08.394Z,81.13
2022-10-23T05:37:41.067Z,81.42
2022-10-23T05:40:16.674Z,81.45
2022-10-23T05:42:48.504Z,81.26
2022-10-23T05:45:22.482Z,81.59
2022-10-23T05:48:29.846Z,81.39
2022-10-23T05:51:21.152Z,81.35
2022-10-23T05:54:02.778Z,81.37
2022-10-23T05:56:41.570Z,81.49
2022-10-23T05:59:32.464Z,81.30
2022-10-23T06:02:26.595Z,81.14
2022-10-23T06:05:01.058Z,80.89
2022-10-23T06:07:40.705Z,80.94
2022-10-23T06:10:12.354Z,80.83
2022-10-23T06:12:45.210Z,80.75
2022-10-23T06:15:19.329Z,80.96
2022-10-23T06:18:16.247Z,80.88
2022-10-23T06:20:56.330Z,80.91
2022-10-23T06:23:31.256Z,81.10
2022-10-23T06:26:25.164Z,81.32
2022-10-23T06:29:07.529Z,81.44
2022-10-23T06:31:38.475Z,81.43
2022-10-23T06:34:12.421Z,81.19
2022-10-23T06:36:43.764Z,81.20
2022-10-23T06:39:29.827Z,81.06
2022-10-23T06:42:16.781Z,81.01
2022-10-23T06:45:03.363Z,81.06
2022-10-23T06:47:57.465Z,80.58
2022-10-23T06:50:47.109Z,80.73
2022-10-23T06:53:21.058Z,80.52
2022-10-23T06:55:59.853Z,80.43
2022-10-23T06:58:31.275Z,80.10
2022-10-23T07:01:08.296Z,79.72
2022-10-23T07:03:39.503Z,79.38
2022-10-23T07:06:12.701Z,78.95
2022-10-23T07:08:43.556Z,78.38
2022-10-23T07:11:32.047Z,78.01
2022-10-23T07:14:02.884Z,77.65
2022-10-23T07:16:34.870Z,77.34
2022-10-23T07:19:07.141Z,77.32
2022-10-23T07:22:08.111Z,76.94
2022-10-23T07:24:58.992Z,76.04
2022-10-23T07:27:37.275Z,75.21
2022-10-23T07:30:10.512Z,74.94
2022-10-23T07:32:50.453Z,74.69
2022-10-23T07:35:47.448Z,74.09
2022-10-23T07:38:23.391Z,73.57
2022-10-23T07:40:59.380Z,73.16
2022-10-23T07:43:30.251Z,72.73
2022-10-23T07:46:00.984Z,72.65
2022-10-23T07:48:37.026Z,72.09
2022-10-23T07:51:10.740Z,71.37
2022-10-23T07:53:45.793Z,70.94
2022-10-23T07:56:39.827Z,70.47
2022-10-23T07:59:34.567Z,70.26
2022-10-23T08:02:14.733Z,69.70
2022-10-23T08:04:45.748Z,69.65
2022-10-23T08:07:31.702Z,69.36
2022-10-23T08:10:04.494Z,69.02
2022-10-23T08:12:35.639Z,68.65
2022-10-23T08:15:07.396Z,68.53
2022-10-23T08:17:46.110Z,67.87
2022-10-23T08:20:20.234Z,67.80
2022-10-23T08:22:51.981Z,66.96
2022-10-23T08:25:26.758Z,67.01
2022-10-23T08:27:57.608Z,67.09
2022-10-23T08:30:29.221Z,66.92
2022-10-23T08:33:03.540Z,66.52
2022-10-23T08:35:36.377Z,66.44
2022-10-23T08:38:08.192Z,65.80
2022-10-23T08:40:47.199Z,65.83
2022-10-23T08:43:42.716Z,65.72
2022-10-23T08:46:32.463Z,65.80
2022-10-23T08:49:32.350Z,66.08
2022-10-23T08:52:22.642Z,66.02
2022-10-23T08:55:02.044Z,65.59
2022-10-23T08:57:41.257Z,65.40
2022-10-23T09:00:19.247Z,65.56
2022-10-23T09:02:51.771Z,65.70
2022-10-23T09:05:28.980Z,65.82
2022-10-23T09:08:12.734Z,65.54
2022-10-23T09:11:04.427Z,65.31
2022-10-23T09:13:51.345Z,64.99
2022-10-23T09:16:33.404Z,65.12
2022-10-23T09:19:12.141Z,64.77
2022-10-23T09:21:43.231Z,64.24
2022-10-23T09:24:18.597Z,64.24
2022-10-23T09:26:51.865Z,64.18
2022-10-23T09:29:26.350Z,63.95
2022-10-23T09:31:59.137Z,64.07
2022-10-23T09:34:31.314Z,63.77
2022-10-23T09:37:03.938Z,63.62
2022-10-23T09:39:36.976Z,63.64
2022-10-23T09:42:24.664Z,64.27
2022-10-23T09:44:57.565Z,64.39
2022-10-23T09:47:28.631Z,64.24
2022-10-23T09:49:59.632Z,65.13
2022-10-23T09:52:38.186Z,65.12
2022-10-23T09:55:23.290Z,65.20
2022-10-23T09:57:54.990Z,64.87
2022-10-23T10:00:27.870Z,64.52
2022-10-23T10:03:01.278Z,64.26
2022-10-23T10:05:43.942Z,64.14
2022-10-23T10:08:27.325Z,64.05
2022-10-23T10:11:02.454Z,64.07
2022-10-23T10:13:47.623Z,64.18
2022-10-23T10:16:28.565Z,63.90
2022-10-23T10:19:11.290Z,63.74
2022-10-23T10:21:47.491Z,63.48
2022-10-23T10:24:23.603Z,63.26
2022-10-23T10:27:02.894Z,63.14
2022-10-23T10:29:47.956Z,63.23
2022-10-23T10:32:32.335Z,63.33
2022-10-23T10:35:17.404Z,63.38
2022-10-23T10:38:03.064Z,63.23
2022-10-23T10:40:37.319Z,62.58
2022-10-23T10:43:25.452Z,62.70
2022-10-23T10:46:05.649Z,62.91
2022-10-23T10:48:48.294Z,62.93
2022-10-23T10:51:37.972Z,62.73
2022-10-23T10:54:22.620Z,62.68
2022-10-23T10:56:55.057Z,62.43
2022-10-23T10:59:29.535Z,62.42
2022-10-23T11:02:06.869Z,62.41
2022-10-23T11:04:42.233Z,62.80
2022-10-23T11:07:16.549Z,62.71
2022-10-23T11:09:47.497Z,62.96
2022-10-23T11:12:21.869Z,62.83
2022-10-23T11:14:52.980Z,62.68
2022-10-23T11:17:29.850Z,62.54
2022-10-23T11:20:06.118Z,62.74
2022-10-23T11:22:44.301Z,62.78
2022-10-23T11:25:42.075Z,62.96
2022-10-23T11:28:28.654Z,62.96
2022-10-23T11:31:17.319Z,63.07
2022-10-23T11:34:23.204Z,63.11
2022-10-23T11:36:56.707Z,63.49
2022-10-23T11:39:30.141Z,63.54
2022-10-23T11:42:30.801Z,63.64
2022-10-23T11:45:01.475Z,63.59
2022-10-23T11:47:40.040Z,63.81
2022-10-23T11:50:26.820Z,63.81
2022-10-23T11:53:14.584Z,64.03
2022-10-23T11:56:04.398Z,64.12
2022-10-23T11:58:47.943Z,64.23
2022-10-23T12:01:30.486Z,64.24
2022-10-23T12:04:04.733Z,64.39
2022-10-23T12:06:42.666Z,64.50
2022-10-23T12:09:26.998Z,64.82
2022-10-23T12:12:17.728Z,64.61
2022-10-23T12:14:50.312Z,64.80
2022-10-23T12:17:44.992Z,65.08
2022-10-23T12:20:26.762Z,65.02
2022-10-23T12:23:16.012Z,65.22
2022-10-23T12:26:05.909Z,65.39
2022-10-23T12:28:42.487Z,65.39
2022-10-23T12:31:28.788Z,65.51
2022-10-23T12:34:09.254Z,65.58
2022-10-23T12:37:03.627Z,65.63
2022-10-23T12:39:36.504Z,65.78
2022-10-23T12:42:15.454Z,65.92
2022-10-23T12:44:46.169Z,65.93
2022-10-23T12:47:19.770Z,65.77
2022-10-23T12:49:53.057Z,65.91
2022-10-23T12:52:25.324Z,65.87
2022-10-23T12:54:55.950Z,65.81
2022-10-23T12:57:30.154Z,65.66
2022-10-23T13:00:06.156Z,65.61
2022-10-23T13:02:37.515Z,65.39
2022-10-23T13:05:13.625Z,65.50
2022-10-23T13:07:47.528Z,65.57
2022-10-23T13:10:22.617Z,65.66
2022-10-23T13:13:03.698Z,65.73
2022-10-23T13:15:42.009Z,65.78
2022-10-23T13:18:14.232Z,65.78
2022-10-23T13:20:56.816Z,65.81
2022-10-23T13:23:32.470Z,65.68
2022-10-23T13:26:05.347Z,65.51
2022-10-23T13:28:42.940Z,65.37
2022-10-23T13:31:32.879Z,65.39
2022-10-23T13:34:31.677Z,65.37
2022-10-23T13:37:05.131Z,65.23
2022-10-23T13:39:36.880Z,65.14
2022-10-23T13:42:15.996Z,65.10
2022-10-23T13:44:47.439Z,65.28
2022-10-23T13:47:20.114Z,65.23
2022-10-23T13:49:50.842Z,64.86
2022-10-23T13:52:24.396Z,64.98
2022-10-23T13:54:55.168Z,65.02
2022-10-23T13:57:25.711Z,64.81
2022-10-23T13:59:56.404Z,64.79
2022-10-23T14:02:27.151Z,64.77
2022-10-23T14:04:57.986Z,64.82
2022-10-23T14:07:28.687Z,65.02
2022-10-23T14:09:59.573Z,65.04
2022-10-23T14:12:30.293Z,65.06
2022-10-23T14:15:01.238Z,65.09
2022-10-23T14:17:31.917Z,65.25
2022-10-23T14:20:05.161Z,65.24
2022-10-23T14:22:36.626Z,65.41
2022-10-23T14:25:08.843Z,65.47
2022-10-23T14:27:39.499Z,65.47
2022-10-23T14:30:12.414Z,65.63
2022-10-23T14:32:44.178Z,65.70
2022-10-23T14:35:15.469Z,65.65
2022-10-23T14:37:46.455Z,65.84
2022-10-23T14:40:17.531Z,65.96
2022-10-23T14:42:48.489Z,66.02
2022-10-23T14:45:19.672Z,66.01
2022-10-23T14:47:50.550Z,66.06
2022-10-23T14:50:21.240Z,66.11
2022-10-23T14:52:51.905Z,66.18
2022-10-23T14:55:22.831Z,66.38
2022-10-23T14:57:57.497Z,66.40
2022-10-23T15:00:28.973Z,66.52
2022-10-23T15:02:59.705Z,66.54
2022-10-23T15:05:30.582Z,66.65
2022-10-23T15:08:01.759Z,66.80
2022-10-23T15:10:32.425Z,66.77
2022-10-23T15:13:03.186Z,66.80
2022-10-23T15:15:33.756Z,66.80
2022-10-23T15:18:04.600Z,66.97
2022-10-23T15:20:35.339Z,67.12
2022-10-23T15:23:06.356Z,67.25
2022-10-23T15:25:37.208Z,67.23
2022-10-23T15:28:07.807Z,67.39
2022-10-23T15:30:43.475Z,67.46
2022-10-23T15:33:19.119Z,67.63
2022-10-23T15:35:51.363Z,67.81
2022-10-23T15:38:22.607Z,68.01
2022-10-23T15:40:55.180Z,68.07
2022-10-23T15:43:25.771Z,68.23
2022-10-23T15:45:56.508Z,68.28
2022-10-23T15:48:27.187Z,68.41
2022-10-23T15:50:59.241Z,68.55
2022-10-23T15:53:29.937Z,68.60
2022-10-23T15:56:00.619Z,68.70
2022-10-23T15:58:31.244Z,68.82
2022-10-23T16:01:06.422Z,68.90
2022-10-23T16:03:38.700Z,68.90
2022-10-23T16:06:11.684Z,68.99
2022-10-23T16:08:43.903Z,69.16
2022-10-23T16:11:18.946Z,69.10
2022-10-23T16:13:49.876Z,69.09
2022-10-23T16:16:21.274Z,69.17
2022-10-23T16:18:52.498Z,69.19
2022-10-23T16:21:25.154Z,69.46
2022-10-23T16:23:59.385Z,69.37
2022-10-23T16:26:31.002Z,69.27
2022-10-23T16:29:03.498Z,69.45
2022-10-23T16:31:35.493Z,69.32
2022-10-23T16:34:07.205Z,69.45
2022-10-23T16:36:39.763Z,69.42
2022-10-23T16:39:26.259Z,69.48
2022-10-23T16:42:15.792Z,69.52
2022-10-23T16:45:05.572Z,69.61
2022-10-23T16:47:37.024Z,69.58
2022-10-23T16:50:09.092Z,69.70
2022-10-23T16:52:39.931Z,69.77
2022-10-23T16:55:12.131Z,69.72
2022-10-23T16:57:42.980Z,69.85
2022-10-23T17:00:14.831Z,70.01
2022-10-23T17:02:45.715Z,69.90
2022-10-23T17:05:16.792Z,69.93
2022-10-23T17:07:47.450Z,69.94
2022-10-23T17:10:18.403Z,69.98
2022-10-23T17:12:50.119Z,70.03
2022-10-23T17:15:21.327Z,70.08
2022-10-23T17:17:52.166Z,70.07
2022-10-23T17:20:23.099Z,70.25
2022-10-23T17:22:53.875Z,70.32
2022-10-23T17:25:26.148Z,70.31
2022-10-23T17:27:55.349Z,70.41
2022-10-23T17:30:26.141Z,70.55
2022-10-23T17:32:59.497Z,70.70
2022-10-23T17:35:32.664Z,70.75
2022-10-23T17:38:03.538Z,70.80
2022-10-23T17:40:34.851Z,70.88
2022-10-23T17:43:05.678Z,71.01
2022-10-23T17:45:40.311Z,71.16
2022-10-23T17:48:11.712Z,71.21
2022-10-23T17:50:42.561Z,71.30
2022-10-23T17:53:13.424Z,71.35
2022-10-23T17:55:44.642Z,71.49
2022-10-23T17:58:15.480Z,71.51
2022-10-23T18:00:46.129Z,71.54
2022-10-23T18:03:19.732Z,71.56
2022-10-23T18:05:50.874Z,71.77
2022-10-23T18:08:21.535Z,71.78
2022-10-23T18:10:52.334Z,71.97
2022-10-23T18:13:23.094Z,71.98
2022-10-23T18:15:53.904Z,71.99
2022-10-23T18:18:24.619Z,72.04
2022-10-23T18:20:55.226Z,72.17
2022-10-23T18:23:26.546Z,72.24
2022-10-23T18:25:58.979Z,72.45
2022-10-23T18:28:28.789Z,72.53
2022-10-23T18:30:59.497Z,72.56
2022-10-23T18:33:30.164Z,72.59
2022-10-23T18:36:00.908Z,72.87
2022-10-23T18:38:31.702Z,72.86
2022-10-23T18:41:02.372Z,73.08
2022-10-23T18:43:43.354Z,73.00
2022-10-23T18:46:15.155Z,73.11
2022-10-23T18:48:46.570Z,73.33
2022-10-23T18:51:19.870Z,73.29
2022-10-23T18:53:50.790Z,73.36
2022-10-23T18:56:24.537Z,73.54
2022-10-23T18:58:57.199Z,73.51
2022-10-23T19:01:27.890Z,73.52
2022-10-23T19:04:00.895Z,73.55
2022-10-23T19:06:33.303Z,73.93
2022-10-23T19:09:11.192Z,73.80
2022-10-23T19:11:42.215Z,73.66
2022-10-23T19:14:15.843Z,73.76
2022-10-23T19:16:54.199Z,73.79
2022-10-23T19:19:28.133Z,73.71
2022-10-23T19:21:59.402Z,73.83
2022-10-23T19:24:37.901Z,73.84
2022-10-23T19:27:09.946Z,73.87
2022-10-23T19:29:44.386Z,73.97
2022-10-23T19:32:15.930Z,73.95
2022-10-23T19:34:47.007Z,74.13
2022-10-23T19:37:17.908Z,74.08
2022-10-23T19:39:48.642Z,74.17
2022-10-23T19:42:19.429Z,74.13
2022-10-23T19:44:50.104Z,74.31
2022-10-23T19:47:20.945Z,74.28
2022-10-23T19:49:53.089Z,74.26
2022-10-23T19:52:26.446Z,74.36
2022-10-23T19:54:57.302Z,74.38
2022-10-23T19:57:30.387Z,74.33
2022-10-23T20:00:02.133Z,74.26
2022-10-23T20:02:55.287Z,74.33
2022-10-23T20:05:26.400Z,74.32
2022-10-23T20:07:58.648Z,74.28
2022-10-23T20:10:30.119Z,74.33
2022-10-23T20:13:18.864Z,74.17
2022-10-23T20:15:51.331Z,74.26
2022-10-23T20:18:21.970Z,74.14
2022-10-23T20:20:52.907Z,74.27
2022-10-23T20:23:23.565Z,74.13
2022-10-23T20:25:54.702Z,74.03
2022-10-23T20:28:25.307Z,73.93
2022-10-23T20:30:56.020Z,73.84
2022-10-23T20:33:26.647Z,73.83
2022-10-23T20:35:57.270Z,73.76
2022-10-23T20:38:28.251Z,73.63
2022-10-23T20:41:04.096Z,73.50
2022-10-23T20:43:35.181Z,73.49
2022-10-23T20:46:08.808Z,73.30
2022-10-23T20:48:40.468Z,73.11
2022-10-23T20:51:13.275Z,73.18
2022-10-23T20:53:45.167Z,72.93
2022-10-23T20:56:19.808Z,72.84
2022-10-23T20:58:50.486Z,72.86
2022-10-23T21:01:21.553Z,72.83
2022-10-23T21:03:56.092Z,72.83
2022-10-23T21:06:31.540Z,72.83
2022-10-23T21:09:08.636Z,72.71
2022-10-23T21:11:40.028Z,72.59
2022-10-23T21:14:10.856Z,72.71
2022-10-23T21:16:44.633Z,72.72
2022-10-23T21:19:16.951Z,72.69
2022-10-23T21:21:47.757Z,72.67
2022-10-23T21:24:19.231Z,72.68
2022-10-23T21:26:50.217Z,72.61
2022-10-23T21:29:21.126Z,72.56
2022-10-23T21:31:56.782Z,72.65
2022-10-23T21:34:27.756Z,72.86
2022-10-23T21:37:14.656Z,73.03
2022-10-23T21:39:47.073Z,73.16
2022-10-23T21:42:17.815Z,73.31
2022-10-23T21:44:48.763Z,73.33
2022-10-23T21:47:19.469Z,73.76
2022-10-23T21:49:50.228Z,74.23
2022-10-23T21:52:20.955Z,74.18
2022-10-23T21:54:55.883Z,74.32
2022-10-23T21:57:26.558Z,74.61
2022-10-23T21:59:58.371Z,74.62
2022-10-23T22:02:29.171Z,74.74
2022-10-23T22:05:00.011Z,74.99
2022-10-23T22:07:30.617Z,75.09
2022-10-23T22:10:01.445Z,75.02
2022-10-23T22:12:32.139Z,75.09
2022-10-23T22:15:02.883Z,75.36
2022-10-23T22:17:33.589Z,75.46
2022-10-23T22:20:04.735Z,75.35
2022-10-23T22:22:35.123Z,75.76
2022-10-23T22:25:06.783Z,76.05
2022-10-23T22:27:38.025Z,76.13
2022-10-23T22:30:10.004Z,76.24
2022-10-23T22:32:40.788Z,76.34
2022-10-23T22:35:12.165Z,76.67
2022-10-23T22:37:42.949Z,76.77
2022-10-23T22:40:15.216Z,76.79
2022-10-23T22:42:45.935Z,76.76
2022-10-23T22:45:17.099Z,76.90
2022-10-23T22:47:48.101Z,76.96
2022-10-23T22:50:18.981Z,77.16
2022-10-23T22:52:49.584Z,77.13
2022-10-23T22:55:20.630Z,77.09
2022-10-23T22:57:51.233Z,77.08
2022-10-23T23:00:22.293Z,77.07
2022-10-23T23:02:53.081Z,76.90
2022-10-23T23:05:24.007Z,76.84
2022-10-23T23:07:54.779Z,76.91
2022-10-23T23:10:25.641Z,76.79
2022-10-23T23:12:56.287Z,76.83
2022-10-23T23:15:27.957Z,76.86
2022-10-23T23:17:58.919Z,76.66
2022-10-23T23:20:29.635Z,76.63
2022-10-23T23:23:00.343Z,76.58
2022-10-23T23:25:31.137Z,76.49
2022-10-23T23:28:01.857Z,76.53
2022-10-23T23:30:32.482Z,76.40
2022-10-23T23:33:08.122Z,76.50
2022-10-23T23:36:01.698Z,76.41
2022-10-23T23:38:35.306Z,76.46
2022-10-23T23:41:07.278Z,76.26
2022-10-23T23:43:38.059Z,76.27
2022-10-23T23:46:09.196Z,76.29
2022-10-23T23:48:40.276Z,76.27
2022-10-23T23:51:10.971Z,76.26
2022-10-23T23:53:41.611Z,76.25
2022-10-23T23:56:12.358Z,76.26
2022-10-23T23:58:43.427Z,76.19
